Jamestwn, North Dakota
Current Conditions -  °F | °C
As of 10:56 AM on Sunday 21 Dec 2014 (Local Time) from KJMS Reporting Station
Moderate Fog Moderate Fog  
Wind Chill: 20°   Ceiling: 200
Heat Index: 30°   Visibility: 0.5mi
Dew Point: 27°   Wind: 14mph
Humidity: 88%   Direction: 150°SSE
Pressure: 29.6"   Gusts: NA
Location:  46.9109°N, 98.7082°W
Report Text: KJMS 211656Z AUTO 15012KT 1/2SM FZFG VV002 M01/M03 A2960 RMK AO2 SLP045 T10111028
Loading
Personal Weather Stations






























Interactive Weather Map New forecast layout! Learn more

10-Day Weather Forecast

Advertisements
Track Severe Weather on mobile